createdAt,value
2018-03-01T00:40:32.014Z,35.30
2018-03-01T00:42:59.575Z,35.10
2018-03-01T00:45:27.926Z,36.20
2018-03-01T00:47:57.470Z,36.70
2018-03-01T00:50:25.585Z,36.60
2018-03-01T00:52:53.143Z,36.50
2018-03-01T00:55:21.118Z,36.40
2018-03-01T00:57:49.104Z,36.60
2018-03-01T01:00:25.177Z,37.20
2018-03-01T01:02:56.792Z,36.30
2018-03-01T01:05:24.345Z,36.30
2018-03-01T01:07:53.346Z,36.90
2018-03-01T01:10:22.166Z,37.50
2018-03-01T01:12:50.902Z,37.90
2018-03-01T01:15:18.743Z,37.00
2018-03-01T01:17:46.415Z,37.20
2018-03-01T01:20:14.784Z,37.70
2018-03-01T01:22:42.337Z,38.10
2018-03-01T01:25:09.944Z,38.00
2018-03-01T01:27:38.877Z,37.50
2018-03-01T01:30:06.482Z,37.70
2018-03-01T01:32:34.020Z,37.90
2018-03-01T01:35:04.965Z,37.30
2018-03-01T01:37:33.155Z,37.80
2018-03-01T01:40:00.895Z,36.70
2018-03-01T01:42:29.082Z,36.10
2018-03-01T01:44:57.818Z,36.50
2018-03-01T01:47:25.589Z,37.30
2018-03-01T01:49:53.550Z,37.40
2018-03-01T01:52:23.957Z,37.00
2018-03-01T01:54:52.351Z,37.50
2018-03-01T01:57:20.294Z,37.70
2018-03-01T01:59:49.095Z,38.30
2018-03-01T02:02:16.654Z,38.20
2018-03-01T02:04:44.231Z,38.20
2018-03-01T02:07:13.138Z,38.10
2018-03-01T02:09:41.696Z,38.40
2018-03-01T02:12:09.246Z,38.60
2018-03-01T02:14:38.238Z,38.30
2018-03-01T02:17:05.924Z,37.80
2018-03-01T02:19:33.862Z,37.10
2018-03-01T02:22:02.693Z,37.00
2018-03-01T02:24:31.060Z,36.90
2018-03-01T02:26:59.677Z,37.50
2018-03-01T02:29:28.112Z,37.90
2018-03-01T02:31:55.692Z,38.30
2018-03-01T02:34:24.550Z,38.50
2018-03-01T02:36:53.458Z,38.90
2018-03-01T02:39:21.264Z,38.90
2018-03-01T02:41:51.433Z,38.40
2018-03-01T02:44:18.978Z,37.90
2018-03-01T02:46:46.988Z,37.60
2018-03-01T02:49:14.932Z,38.00
2018-03-01T02:51:42.514Z,37.90
2018-03-01T02:54:10.440Z,38.20
2018-03-01T02:56:40.359Z,38.70
2018-03-01T02:59:10.465Z,38.80
2018-03-01T03:01:41.480Z,38.10
2018-03-01T03:04:09.945Z,38.10
2018-03-01T03:06:37.554Z,38.30
2018-03-01T03:09:05.174Z,38.70
2018-03-01T03:11:32.750Z,38.50
2018-03-01T03:14:00.308Z,38.40
2018-03-01T03:16:28.601Z,39.20
2018-03-01T03:18:56.986Z,39.60
2018-03-01T03:21:24.768Z,39.20
2018-03-01T03:23:53.378Z,37.50
2018-03-01T03:26:20.944Z,37.50
2018-03-01T03:28:48.485Z,38.10
2018-03-01T03:31:16.832Z,38.40
2018-03-01T03:33:44.841Z,38.70
2018-03-01T03:36:12.933Z,39.20
2018-03-01T03:38:42.482Z,38.40
2018-03-01T03:41:10.798Z,38.80
2018-03-01T03:43:39.268Z,38.40
2018-03-01T03:46:07.261Z,38.10
2018-03-01T03:48:35.604Z,38.60
2018-03-01T03:51:03.580Z,38.50
2018-03-01T03:53:31.562Z,38.50
2018-03-01T03:56:00.944Z,38.20
2018-03-01T03:58:29.843Z,37.70
2018-03-01T04:00:58.744Z,37.10
2018-03-01T04:03:27.925Z,37.50
2018-03-01T04:05:56.623Z,36.60
2018-03-01T04:08:25.295Z,37.00
2018-03-01T04:10:53.591Z,37.40
2018-03-01T04:13:21.226Z,36.50
2018-03-01T04:15:49.534Z,37.00
2018-03-01T04:18:18.610Z,37.60
2018-03-01T04:20:50.862Z,37.30
2018-03-01T04:23:19.495Z,36.80
2018-03-01T04:25:47.702Z,37.20
2018-03-01T04:28:15.256Z,37.50
2018-03-01T04:30:44.831Z,37.50
2018-03-01T04:33:12.388Z,37.80
2018-03-01T04:35:41.435Z,38.40
2018-03-01T04:38:09.438Z,38.50
2018-03-01T04:40:37.012Z,39.00
2018-03-01T04:43:06.815Z,38.50
2018-03-01T04:45:35.146Z,37.30
2018-03-01T04:48:03.213Z,36.30
2018-03-01T04:50:31.491Z,38.10
2018-03-01T04:53:00.005Z,38.50
2018-03-01T04:55:30.995Z,39.00
2018-03-01T04:57:59.398Z,39.00
2018-03-01T12:28:12.808Z,23.20
2018-03-01T12:30:40.309Z,23.40
2018-03-01T12:33:08.873Z,23.20
2018-03-01T12:35:37.343Z,22.80
2018-03-01T12:38:04.902Z,23.90
2018-03-01T12:40:35.186Z,24.20
2018-03-01T12:43:03.571Z,24.10
2018-03-01T12:45:31.310Z,24.50
2018-03-01T12:48:00.433Z,25.10
2018-03-01T12:50:29.931Z,25.60
2018-03-01T12:52:57.527Z,25.60
2018-03-01T12:55:25.117Z,25.90
2018-03-01T12:57:53.570Z,25.40
2018-03-01T13:00:22.054Z,23.70
2018-03-01T13:02:50.475Z,24.10
2018-03-01T13:05:18.748Z,23.50
2018-03-01T13:07:49.120Z,22.80
2018-03-01T13:10:17.785Z,22.40
2018-03-01T13:12:45.389Z,21.00
2018-03-01T13:15:12.935Z,20.90
2018-03-01T13:17:41.690Z,20.50
2018-03-01T13:20:09.219Z,21.30
2018-03-01T13:22:36.764Z,20.00
2018-03-01T13:25:04.323Z,21.00
2018-03-01T13:27:32.717Z,20.50
2018-03-01T13:33:18.959Z,19.90
2018-03-01T13:35:50.597Z,20.10
2018-03-01T13:38:18.203Z,20.00
2018-03-01T13:40:46.165Z,20.10
2018-03-01T13:43:20.213Z,20.70
2018-03-01T13:45:51.202Z,21.00
2018-03-01T13:48:19.578Z,21.60
2018-03-01T13:50:48.384Z,22.10
2018-03-01T13:53:16.377Z,22.50
2018-03-01T13:55:45.010Z,23.10
2018-03-01T13:58:13.025Z,23.30
2018-03-01T14:00:41.364Z,23.40
2018-03-01T14:03:09.826Z,24.30
2018-03-01T14:05:38.180Z,25.00
2018-03-01T14:08:07.469Z,25.50
2018-03-01T14:10:35.080Z,25.60
2018-03-01T14:13:05.679Z,25.40
2018-03-01T14:15:36.532Z,25.40
2018-03-01T14:18:21.696Z,25.50
2018-03-01T14:24:12.158Z,26.70
2018-03-01T14:26:44.425Z,27.00
2018-03-01T14:32:15.897Z,27.70
2018-03-01T14:34:43.672Z,27.60
2018-03-01T14:37:11.760Z,27.00
2018-03-01T14:39:39.341Z,26.70
2018-03-01T14:42:07.318Z,25.90
2018-03-01T14:44:36.436Z,26.00
2018-03-01T14:47:04.789Z,25.70
2018-03-01T14:49:32.406Z,24.90
2018-03-01T14:52:00.746Z,24.80
2018-03-01T14:54:28.871Z,25.20
2018-03-01T14:56:56.630Z,25.40
2018-03-01T14:59:24.652Z,26.30
2018-03-01T15:01:53.796Z,27.00
2018-03-01T15:04:21.410Z,26.90
2018-03-01T15:06:49.766Z,27.40
2018-03-01T15:09:18.124Z,27.70
2018-03-01T15:11:46.493Z,28.00
2018-03-01T15:14:15.643Z,28.60
2018-03-01T15:16:43.230Z,28.60
2018-03-01T15:19:11.598Z,28.80
2018-03-01T15:21:40.048Z,28.80
2018-03-01T15:24:08.387Z,28.80
2018-03-01T15:26:36.753Z,29.00
2018-03-01T15:29:04.889Z,28.60
2018-03-01T15:31:32.464Z,28.50
2018-03-01T15:34:00.469Z,28.50
2018-03-01T15:36:28.875Z,28.30
2018-03-01T15:38:57.412Z,28.40
2018-03-01T15:41:25.398Z,28.70
2018-03-01T15:43:53.806Z,29.20
2018-03-01T15:46:21.884Z,29.10
2018-03-01T15:48:49.539Z,29.30
2018-03-01T15:51:17.762Z,29.40
2018-03-01T15:53:45.732Z,29.80
2018-03-01T15:56:13.352Z,30.00
2018-03-01T15:58:41.321Z,29.80
2018-03-01T16:01:10.499Z,29.70
2018-03-01T16:03:38.896Z,30.00
2018-03-01T16:06:07.358Z,29.80
2018-03-01T16:08:34.942Z,29.40
2018-03-01T16:11:02.960Z,29.10
2018-03-01T16:13:30.761Z,29.20
2018-03-01T16:15:58.406Z,29.20
2018-03-01T16:18:26.847Z,29.70
2018-03-01T16:20:55.193Z,29.90
2018-03-01T16:23:23.931Z,30.00
2018-03-01T16:25:52.344Z,29.90
2018-03-01T16:28:19.933Z,29.70
2018-03-01T16:30:48.610Z,29.50
2018-03-01T16:33:16.943Z,29.20
2018-03-01T16:35:44.764Z,29.40
2018-03-01T16:38:13.150Z,28.90
2018-03-01T16:40:41.271Z,28.90
2018-03-01T16:43:09.878Z,28.70
2018-03-01T16:45:37.448Z,28.50
2018-03-01T16:48:05.826Z,28.50
2018-03-01T16:50:34.322Z,28.50
2018-03-01T16:53:02.917Z,28.60
2018-03-01T16:55:31.069Z,28.90
2018-03-01T16:57:59.209Z,29.20
2018-03-01T17:00:27.677Z,29.50
2018-03-01T17:02:56.095Z,30.00
2018-03-01T17:05:24.455Z,30.40
2018-03-01T17:07:52.832Z,29.90
2018-03-01T17:10:21.193Z,29.70
2018-03-01T17:12:49.231Z,30.00
2018-03-01T17:15:17.574Z,30.00
2018-03-01T17:17:45.943Z,30.30
2018-03-01T17:20:13.553Z,30.00
2018-03-01T17:22:42.274Z,30.10
2018-03-01T17:25:09.912Z,29.60
2018-03-01T17:27:38.287Z,29.50
2018-03-01T17:30:06.616Z,29.70
2018-03-01T17:32:35.278Z,29.80
2018-03-01T17:35:03.608Z,29.90
2018-03-01T17:37:31.607Z,29.90
2018-03-01T17:39:59.985Z,30.40
2018-03-01T17:42:28.351Z,30.50
2018-03-01T17:44:56.737Z,30.30
2018-03-01T17:47:25.161Z,30.00
2018-03-01T17:49:53.379Z,29.90
2018-03-01T17:52:23.136Z,30.10
2018-03-01T17:54:51.517Z,30.40
2018-03-01T17:57:19.956Z,30.80
2018-03-01T17:59:47.930Z,31.00
2018-03-01T18:02:15.532Z,31.20
2018-03-01T18:04:43.520Z,31.00
2018-03-01T18:07:11.845Z,31.00
2018-03-01T18:09:40.302Z,31.30
2018-03-01T18:12:08.398Z,31.60
2018-03-01T18:14:36.798Z,31.50
2018-03-01T18:17:05.144Z,30.90
2018-03-01T18:19:33.528Z,31.00
2018-03-01T18:22:01.880Z,31.00
2018-03-01T18:24:30.244Z,31.20
2018-03-01T18:27:00.308Z,31.30
2018-03-01T18:29:29.080Z,31.70
2018-03-01T18:31:56.652Z,31.70
2018-03-01T18:34:25.074Z,31.50
2018-03-01T18:36:53.709Z,31.40
2018-03-01T18:39:22.669Z,32.00
2018-03-01T18:41:51.102Z,32.00
2018-03-01T18:44:18.740Z,31.20
2018-03-01T18:46:46.728Z,30.20
2018-03-01T18:49:15.152Z,30.60
2018-03-01T18:51:43.502Z,31.00
2018-03-01T18:54:11.876Z,31.40
2018-03-01T18:56:40.212Z,31.50
2018-03-01T18:59:11.058Z,31.80
2018-03-01T19:01:38.674Z,31.80
2018-03-01T19:04:06.695Z,31.40
2018-03-01T19:06:35.159Z,31.30
2018-03-01T19:09:03.135Z,31.00
2018-03-01T19:11:30.804Z,31.60
2018-03-01T19:13:58.859Z,31.90
2018-03-01T19:16:26.945Z,32.20
2018-03-01T19:18:55.353Z,31.80
2018-03-01T19:21:23.780Z,31.70
2018-03-01T19:23:52.224Z,32.00
2018-03-01T19:26:20.220Z,31.70
2018-03-01T19:28:48.198Z,31.30
2018-03-01T19:31:16.579Z,31.20
2018-03-01T19:33:44.992Z,30.80
2018-03-01T19:36:12.700Z,30.30
2018-03-01T19:38:40.672Z,31.20
2018-03-01T19:41:09.132Z,31.10
2018-03-01T19:43:37.702Z,31.50
2018-03-01T19:46:06.141Z,32.10
2018-03-01T19:48:34.184Z,32.30
2018-03-01T19:51:02.563Z,31.90
2018-03-01T19:53:30.569Z,31.70
2018-03-01T19:55:58.242Z,31.80
2018-03-01T19:58:26.261Z,31.60
2018-03-01T20:00:54.707Z,30.90
2018-03-01T20:03:23.426Z,31.80
2018-03-01T20:05:51.080Z,30.70
2018-03-01T20:08:18.863Z,30.90
2018-03-01T20:10:46.503Z,31.60
2018-03-01T20:13:14.877Z,32.20
2018-03-01T20:15:42.885Z,32.50
2018-03-01T20:18:10.872Z,32.60
2018-03-01T20:20:39.694Z,31.80
2018-03-01T20:23:07.358Z,31.70
2018-03-01T20:25:35.387Z,32.20
2018-03-01T20:28:03.835Z,31.90
2018-03-01T20:30:32.321Z,31.30
2018-03-01T20:33:00.336Z,30.80
2018-03-01T20:35:28.886Z,31.40
2018-03-01T20:37:57.392Z,32.00
2018-03-01T20:40:25.373Z,31.90
2018-03-01T20:42:53.724Z,32.10
2018-03-01T20:45:22.158Z,32.00
2018-03-01T20:47:50.231Z,31.90
2018-03-01T20:50:18.299Z,31.90
2018-03-01T20:52:46.015Z,32.60
2018-03-01T20:55:14.116Z,32.50
2018-03-01T20:57:42.641Z,33.10
2018-03-01T21:00:10.993Z,33.80
2018-03-01T21:02:39.633Z,33.50
2018-03-01T21:05:07.658Z,33.80
2018-03-01T21:07:36.070Z,33.40
2018-03-01T21:10:04.231Z,32.90
2018-03-01T21:12:32.715Z,32.70
2018-03-01T21:15:01.821Z,33.60
2018-03-01T21:17:31.301Z,33.30
2018-03-01T21:19:59.340Z,33.00
2018-03-01T21:22:27.325Z,34.90
2018-03-01T21:24:55.005Z,33.10
2018-03-01T21:27:23.085Z,33.60
2018-03-01T21:29:51.076Z,33.80
2018-03-01T21:32:19.520Z,34.00
2018-03-01T21:34:47.988Z,34.80
2018-03-01T21:37:16.422Z,34.70
2018-03-01T21:39:44.447Z,34.30
2018-03-01T21:42:12.331Z,34.20
2018-03-01T21:44:40.650Z,34.30
2018-03-01T21:47:09.973Z,34.40
2018-03-01T21:49:38.650Z,33.90
2018-03-01T21:52:07.376Z,33.20
2018-03-01T21:54:35.911Z,34.00
2018-03-01T21:57:03.610Z,33.80
2018-03-01T21:59:31.240Z,33.30
2018-03-01T22:02:00.314Z,33.60
2018-03-01T22:04:28.606Z,34.00
2018-03-01T22:06:57.763Z,33.80
2018-03-01T22:09:26.236Z,34.60
2018-03-01T22:11:54.581Z,35.40
2018-03-01T22:14:23.067Z,35.70
2018-03-01T22:16:51.570Z,36.00
2018-03-01T22:19:19.848Z,35.70
2018-03-01T22:21:47.897Z,35.20
2018-03-01T22:24:15.638Z,34.70
2018-03-01T22:26:44.671Z,34.60
2018-03-01T22:29:13.116Z,34.00
2018-03-01T22:31:41.594Z,34.40
2018-03-01T22:34:10.312Z,34.70
2018-03-01T22:36:38.318Z,34.70
2018-03-01T22:39:08.069Z,34.80
2018-03-01T22:41:36.568Z,34.00
2018-03-01T22:44:04.639Z,34.20
2018-03-01T22:46:33.101Z,35.10
2018-03-01T22:49:01.734Z,35.80
2018-03-01T22:51:29.750Z,35.90
2018-03-01T22:53:57.938Z,36.00
2018-03-01T22:56:26.687Z,34.60
2018-03-01T22:58:55.486Z,35.00
2018-03-01T23:01:23.094Z,34.20
2018-03-01T23:03:51.635Z,34.10
2018-03-01T23:06:19.830Z,33.80
2018-03-01T23:08:48.926Z,34.00
2018-03-01T23:11:16.552Z,34.20
2018-03-01T23:13:45.089Z,34.50
2018-03-01T23:16:13.357Z,35.00
2018-03-01T23:18:42.047Z,35.50
2018-03-01T23:21:10.200Z,35.20
2018-03-01T23:23:38.563Z,34.70
2018-03-01T23:26:07.161Z,34.80
2018-03-01T23:28:35.912Z,34.70
2018-03-01T23:31:03.584Z,34.30
2018-03-01T23:33:31.667Z,33.80
2018-03-01T23:36:00.077Z,33.50
2018-03-01T23:38:28.546Z,33.40
2018-03-01T23:40:56.965Z,34.10
2018-03-01T23:43:26.200Z,34.70
2018-03-01T23:45:54.262Z,34.80
2018-03-01T23:48:22.022Z,35.10
2018-03-01T23:50:50.606Z,35.80
2018-03-01T23:53:18.720Z,36.80
2018-03-01T23:55:51.051Z,37.30
2018-03-01T23:58:19.491Z,37.60
